sensor_id;sensor_type;location;lat;lon;timestamp;P1;durP1;ratioP1;P2;durP2;ratioP2
5831;SDS011;50943;51.448;7.646;2022-08-21T00:02:18;19.50;;;8.87;;
5831;SDS011;50943;51.448;7.646;2022-08-21T00:04:46;12.10;;;7.60;;
5831;SDS011;50943;51.448;7.646;2022-08-21T00:07:12;12.90;;;7.70;;
5831;SDS011;50943;51.448;7.646;2022-08-21T00:09:39;13.33;;;7.77;;
5831;SDS011;50943;51.448;7.646;2022-08-21T00:12:06;15.07;;;7.70;;
5831;SDS011;50943;51.448;7.646;2022-08-21T00:14:33;13.57;;;7.73;;
5831;SDS011;50943;51.448;7.646;2022-08-21T00:17:01;14.80;;;8.20;;
5831;SDS011;50943;51.448;7.646;2022-08-21T00:19:28;15.70;;;8.50;;
5831;SDS011;50943;51.448;7.646;2022-08-21T00:21:55;17.20;;;9.20;;
5831;SDS011;50943;51.448;7.646;2022-08-21T00:24:22;16.80;;;8.37;;
5831;SDS011;50943;51.448;7.646;2022-08-21T00:26:48;13.57;;;8.60;;
5831;SDS011;50943;51.448;7.646;2022-08-21T00:29:15;15.23;;;8.90;;
5831;SDS011;50943;51.448;7.646;2022-08-21T00:31:42;16.57;;;9.30;;
5831;SDS011;50943;51.448;7.646;2022-08-21T00:34:10;14.77;;;9.73;;
5831;SDS011;50943;51.448;7.646;2022-08-21T00:36:37;16.73;;;10.63;;
5831;SDS011;50943;51.448;7.646;2022-08-21T00:39:04;21.13;;;9.87;;
5831;SDS011;50943;51.448;7.646;2022-08-21T00:41:31;21.07;;;10.40;;
5831;SDS011;50943;51.448;7.646;2022-08-21T00:43:58;17.30;;;10.00;;
5831;SDS011;50943;51.448;7.646;2022-08-21T00:46:25;17.90;;;9.80;;
5831;SDS011;50943;51.448;7.646;2022-08-21T00:48:51;17.57;;;10.70;;
5831;SDS011;50943;51.448;7.646;2022-08-21T00:51:21;20.03;;;9.70;;
5831;SDS011;50943;51.448;7.646;2022-08-21T00:53:51;16.10;;;10.03;;
5831;SDS011;50943;51.448;7.646;2022-08-21T00:56:19;16.43;;;9.70;;
5831;SDS011;50943;51.448;7.646;2022-08-21T00:58:47;19.03;;;10.60;;
5831;SDS011;50943;51.448;7.646;2022-08-21T01:01:14;19.70;;;10.70;;
5831;SDS011;50943;51.448;7.646;2022-08-21T01:03:40;15.83;;;10.90;;
5831;SDS011;50943;51.448;7.646;2022-08-21T01:06:07;18.90;;;10.27;;
5831;SDS011;50943;51.448;7.646;2022-08-21T01:08:35;20.27;;;10.90;;
5831;SDS011;50943;51.448;7.646;2022-08-21T01:11:02;20.40;;;9.73;;
5831;SDS011;50943;51.448;7.646;2022-08-21T01:13:29;15.33;;;9.50;;
5831;SDS011;50943;51.448;7.646;2022-08-21T01:15:58;18.07;;;9.80;;
5831;SDS011;50943;51.448;7.646;2022-08-21T01:18:25;13.03;;;9.10;;
5831;SDS011;50943;51.448;7.646;2022-08-21T01:21:01;17.17;;;11.97;;
5831;SDS011;50943;51.448;7.646;2022-08-21T01:23:28;17.93;;;10.73;;
5831;SDS011;50943;51.448;7.646;2022-08-21T01:25:55;21.83;;;10.43;;
5831;SDS011;50943;51.448;7.646;2022-08-21T01:28:22;23.70;;;10.80;;
5831;SDS011;50943;51.448;7.646;2022-08-21T01:30:50;14.57;;;9.53;;
5831;SDS011;50943;51.448;7.646;2022-08-21T01:33:17;18.97;;;9.50;;
5831;SDS011;50943;51.448;7.646;2022-08-21T01:35:44;17.37;;;9.70;;
5831;SDS011;50943;51.448;7.646;2022-08-21T01:38:11;17.70;;;11.03;;
5831;SDS011;50943;51.448;7.646;2022-08-21T01:40:38;16.90;;;9.30;;
5831;SDS011;50943;51.448;7.646;2022-08-21T01:43:05;18.13;;;9.40;;
5831;SDS011;50943;51.448;7.646;2022-08-21T01:45:31;13.93;;;8.90;;
5831;SDS011;50943;51.448;7.646;2022-08-21T01:47:58;13.30;;;8.63;;
5831;SDS011;50943;51.448;7.646;2022-08-21T01:50:25;20.13;;;10.50;;
5831;SDS011;50943;51.448;7.646;2022-08-21T01:52:51;14.00;;;8.93;;
5831;SDS011;50943;51.448;7.646;2022-08-21T01:55:20;14.47;;;9.07;;
5831;SDS011;50943;51.448;7.646;2022-08-21T01:57:47;15.90;;;9.87;;
5831;SDS011;50943;51.448;7.646;2022-08-21T02:00:14;13.30;;;9.13;;
5831;SDS011;50943;51.448;7.646;2022-08-21T02:02:41;15.83;;;9.83;;
5831;SDS011;50943;51.448;7.646;2022-08-21T02:05:08;14.30;;;8.10;;
5831;SDS011;50943;51.448;7.646;2022-08-21T02:07:36;15.00;;;9.03;;
5831;SDS011;50943;51.448;7.646;2022-08-21T02:10:04;17.37;;;9.00;;
5831;SDS011;50943;51.448;7.646;2022-08-21T02:12:32;14.60;;;9.00;;
5831;SDS011;50943;51.448;7.646;2022-08-21T02:14:59;16.90;;;9.80;;
5831;SDS011;50943;51.448;7.646;2022-08-21T02:17:25;17.73;;;10.37;;
5831;SDS011;50943;51.448;7.646;2022-08-21T02:19:52;14.87;;;8.97;;
5831;SDS011;50943;51.448;7.646;2022-08-21T02:22:19;16.33;;;10.60;;
5831;SDS011;50943;51.448;7.646;2022-08-21T02:24:45;15.30;;;9.83;;
5831;SDS011;50943;51.448;7.646;2022-08-21T02:27:12;15.73;;;10.37;;
5831;SDS011;50943;51.448;7.646;2022-08-21T02:29:39;14.07;;;8.97;;
5831;SDS011;50943;51.448;7.646;2022-08-21T02:32:06;13.37;;;9.10;;
5831;SDS011;50943;51.448;7.646;2022-08-21T02:34:33;18.73;;;8.77;;
5831;SDS011;50943;51.448;7.646;2022-08-21T02:36:59;12.87;;;8.50;;
5831;SDS011;50943;51.448;7.646;2022-08-21T02:39:26;10.10;;;8.27;;
5831;SDS011;50943;51.448;7.646;2022-08-21T02:41:52;15.20;;;9.53;;
5831;SDS011;50943;51.448;7.646;2022-08-21T02:44:19;17.40;;;9.60;;
5831;SDS011;50943;51.448;7.646;2022-08-21T02:46:46;14.73;;;9.20;;
5831;SDS011;50943;51.448;7.646;2022-08-21T02:49:13;13.80;;;9.20;;
5831;SDS011;50943;51.448;7.646;2022-08-21T02:51:39;14.07;;;9.83;;
5831;SDS011;50943;51.448;7.646;2022-08-21T02:54:06;19.20;;;9.80;;
5831;SDS011;50943;51.448;7.646;2022-08-21T02:56:32;16.70;;;9.37;;
5831;SDS011;50943;51.448;7.646;2022-08-21T02:58:59;16.53;;;9.90;;
5831;SDS011;50943;51.448;7.646;2022-08-21T03:01:25;14.80;;;9.70;;
5831;SDS011;50943;51.448;7.646;2022-08-21T03:03:53;13.03;;;9.20;;
5831;SDS011;50943;51.448;7.646;2022-08-21T03:06:20;14.47;;;10.33;;
5831;SDS011;50943;51.448;7.646;2022-08-21T03:08:47;20.77;;;9.30;;
5831;SDS011;50943;51.448;7.646;2022-08-21T03:11:15;15.90;;;9.63;;
5831;SDS011;50943;51.448;7.646;2022-08-21T03:13:42;13.67;;;9.10;;
5831;SDS011;50943;51.448;7.646;2022-08-21T03:16:09;19.83;;;10.83;;
5831;SDS011;50943;51.448;7.646;2022-08-21T03:18:36;16.73;;;9.80;;
5831;SDS011;50943;51.448;7.646;2022-08-21T03:21:04;16.60;;;9.90;;
5831;SDS011;50943;51.448;7.646;2022-08-21T03:23:31;21.83;;;10.13;;
5831;SDS011;50943;51.448;7.646;2022-08-21T03:25:57;20.30;;;9.80;;
5831;SDS011;50943;51.448;7.646;2022-08-21T03:28:24;12.80;;;9.27;;
5831;SDS011;50943;51.448;7.646;2022-08-21T03:30:51;14.80;;;9.47;;
5831;SDS011;50943;51.448;7.646;2022-08-21T03:33:18;15.63;;;9.37;;
5831;SDS011;50943;51.448;7.646;2022-08-21T03:35:46;18.30;;;8.70;;
5831;SDS011;50943;51.448;7.646;2022-08-21T03:38:15;15.70;;;9.73;;
5831;SDS011;50943;51.448;7.646;2022-08-21T03:40:42;15.77;;;9.40;;
5831;SDS011;50943;51.448;7.646;2022-08-21T03:43:09;17.70;;;10.77;;
5831;SDS011;50943;51.448;7.646;2022-08-21T03:45:35;14.00;;;9.50;;
5831;SDS011;50943;51.448;7.646;2022-08-21T03:48:03;17.60;;;10.30;;
5831;SDS011;50943;51.448;7.646;2022-08-21T03:50:31;21.13;;;10.07;;
5831;SDS011;50943;51.448;7.646;2022-08-21T03:52:57;26.57;;;10.17;;
5831;SDS011;50943;51.448;7.646;2022-08-21T03:55:26;18.50;;;10.07;;
5831;SDS011;50943;51.448;7.646;2022-08-21T03:57:53;20.37;;;10.70;;
5831;SDS011;50943;51.448;7.646;2022-08-21T04:00:19;15.40;;;10.67;;
5831;SDS011;50943;51.448;7.646;2022-08-21T04:02:46;18.53;;;10.80;;
5831;SDS011;50943;51.448;7.646;2022-08-21T04:05:13;13.30;;;9.83;;
5831;SDS011;50943;51.448;7.646;2022-08-21T04:07:52;18.10;;;10.47;;
5831;SDS011;50943;51.448;7.646;2022-08-21T04:10:19;15.10;;;10.03;;
5831;SDS011;50943;51.448;7.646;2022-08-21T04:12:47;15.53;;;10.27;;
5831;SDS011;50943;51.448;7.646;2022-08-21T04:15:14;17.30;;;10.27;;
5831;SDS011;50943;51.448;7.646;2022-08-21T04:17:41;14.40;;;9.30;;
5831;SDS011;50943;51.448;7.646;2022-08-21T04:20:08;20.60;;;10.07;;
5831;SDS011;50943;51.448;7.646;2022-08-21T04:22:35;16.83;;;10.37;;
5831;SDS011;50943;51.448;7.646;2022-08-21T04:25:01;16.30;;;10.27;;
5831;SDS011;50943;51.448;7.646;2022-08-21T04:27:28;17.47;;;9.40;;
5831;SDS011;50943;51.448;7.646;2022-08-21T04:29:56;13.50;;;9.13;;
5831;SDS011;50943;51.448;7.646;2022-08-21T04:32:23;11.87;;;8.87;;
5831;SDS011;50943;51.448;7.646;2022-08-21T04:34:57;17.33;;;9.67;;
5831;SDS011;50943;51.448;7.646;2022-08-21T04:37:23;13.70;;;8.90;;
5831;SDS011;50943;51.448;7.646;2022-08-21T04:39:50;16.20;;;9.87;;
5831;SDS011;50943;51.448;7.646;2022-08-21T04:42:17;16.40;;;11.23;;
5831;SDS011;50943;51.448;7.646;2022-08-21T04:44:43;17.20;;;9.83;;
5831;SDS011;50943;51.448;7.646;2022-08-21T04:47:11;14.90;;;9.50;;
5831;SDS011;50943;51.448;7.646;2022-08-21T04:49:37;11.77;;;8.77;;
5831;SDS011;50943;51.448;7.646;2022-08-21T04:52:04;14.07;;;9.57;;
5831;SDS011;50943;51.448;7.646;2022-08-21T04:54:31;14.13;;;9.40;;
5831;SDS011;50943;51.448;7.646;2022-08-21T04:56:59;15.27;;;9.10;;
5831;SDS011;50943;51.448;7.646;2022-08-21T04:59:30;16.47;;;10.60;;
5831;SDS011;50943;51.448;7.646;2022-08-21T05:01:57;18.33;;;9.73;;
5831;SDS011;50943;51.448;7.646;2022-08-21T05:04:27;13.10;;;9.03;;
5831;SDS011;50943;51.448;7.646;2022-08-21T05:06:56;16.83;;;9.07;;
5831;SDS011;50943;51.448;7.646;2022-08-21T05:09:23;12.73;;;8.07;;
5831;SDS011;50943;51.448;7.646;2022-08-21T05:11:50;11.77;;;8.30;;
5831;SDS011;50943;51.448;7.646;2022-08-21T05:14:18;16.27;;;8.07;;
5831;SDS011;50943;51.448;7.646;2022-08-21T05:16:45;12.93;;;7.63;;
5831;SDS011;50943;51.448;7.646;2022-08-21T05:19:11;13.33;;;6.60;;
5831;SDS011;50943;51.448;7.646;2022-08-21T05:21:40;10.37;;;7.03;;
5831;SDS011;50943;51.448;7.646;2022-08-21T05:24:07;13.07;;;6.97;;
5831;SDS011;50943;51.448;7.646;2022-08-21T05:26:34;9.97;;;6.30;;
5831;SDS011;50943;51.448;7.646;2022-08-21T05:29:01;9.40;;;6.60;;
5831;SDS011;50943;51.448;7.646;2022-08-21T05:31:28;8.63;;;5.53;;
5831;SDS011;50943;51.448;7.646;2022-08-21T05:33:54;12.10;;;5.53;;
5831;SDS011;50943;51.448;7.646;2022-08-21T05:36:21;13.73;;;6.70;;
5831;SDS011;50943;51.448;7.646;2022-08-21T05:38:50;12.83;;;7.00;;
5831;SDS011;50943;51.448;7.646;2022-08-21T05:41:16;9.40;;;6.20;;
5831;SDS011;50943;51.448;7.646;2022-08-21T05:43:42;9.43;;;6.50;;
5831;SDS011;50943;51.448;7.646;2022-08-21T05:46:09;10.00;;;5.83;;
5831;SDS011;50943;51.448;7.646;2022-08-21T05:48:35;14.27;;;6.67;;
5831;SDS011;50943;51.448;7.646;2022-08-21T05:51:04;8.93;;;6.27;;
5831;SDS011;50943;51.448;7.646;2022-08-21T05:53:30;9.87;;;5.50;;
5831;SDS011;50943;51.448;7.646;2022-08-21T05:55:58;11.20;;;5.87;;
5831;SDS011;50943;51.448;7.646;2022-08-21T05:58:25;7.37;;;5.73;;
5831;SDS011;50943;51.448;7.646;2022-08-21T06:00:52;10.90;;;5.63;;
5831;SDS011;50943;51.448;7.646;2022-08-21T06:03:19;14.13;;;5.53;;
5831;SDS011;50943;51.448;7.646;2022-08-21T06:05:46;10.53;;;6.00;;
5831;SDS011;50943;51.448;7.646;2022-08-21T06:08:13;9.83;;;5.40;;
5831;SDS011;50943;51.448;7.646;2022-08-21T06:10:40;10.30;;;5.87;;
5831;SDS011;50943;51.448;7.646;2022-08-21T06:13:08;8.00;;;4.83;;
5831;SDS011;50943;51.448;7.646;2022-08-21T06:15:34;10.90;;;5.33;;
5831;SDS011;50943;51.448;7.646;2022-08-21T06:18:01;8.60;;;5.20;;
5831;SDS011;50943;51.448;7.646;2022-08-21T06:20:27;8.27;;;6.07;;
5831;SDS011;50943;51.448;7.646;2022-08-21T06:22:54;16.30;;;5.50;;
5831;SDS011;50943;51.448;7.646;2022-08-21T06:25:20;8.50;;;5.53;;
5831;SDS011;50943;51.448;7.646;2022-08-21T06:27:47;9.37;;;5.40;;
5831;SDS011;50943;51.448;7.646;2022-08-21T06:30:15;12.10;;;5.83;;
5831;SDS011;50943;51.448;7.646;2022-08-21T06:32:41;9.23;;;5.10;;
5831;SDS011;50943;51.448;7.646;2022-08-21T06:35:08;10.40;;;4.90;;
5831;SDS011;50943;51.448;7.646;2022-08-21T06:37:35;12.80;;;5.50;;
5831;SDS011;50943;51.448;7.646;2022-08-21T06:40:03;10.17;;;4.87;;
5831;SDS011;50943;51.448;7.646;2022-08-21T06:42:30;7.77;;;4.77;;
5831;SDS011;50943;51.448;7.646;2022-08-21T06:44:57;8.27;;;4.87;;
5831;SDS011;50943;51.448;7.646;2022-08-21T06:47:25;10.47;;;4.70;;
5831;SDS011;50943;51.448;7.646;2022-08-21T06:49:52;7.33;;;4.40;;
5831;SDS011;50943;51.448;7.646;2022-08-21T06:52:19;7.73;;;4.90;;
5831;SDS011;50943;51.448;7.646;2022-08-21T06:54:45;11.40;;;5.10;;
5831;SDS011;50943;51.448;7.646;2022-08-21T06:57:12;7.03;;;4.30;;
5831;SDS011;50943;51.448;7.646;2022-08-21T06:59:39;8.23;;;5.13;;
5831;SDS011;50943;51.448;7.646;2022-08-21T07:02:06;8.80;;;4.90;;
5831;SDS011;50943;51.448;7.646;2022-08-21T07:04:34;7.63;;;5.00;;
5831;SDS011;50943;51.448;7.646;2022-08-21T07:07:00;6.13;;;4.70;;
5831;SDS011;50943;51.448;7.646;2022-08-21T07:09:27;13.80;;;5.43;;
5831;SDS011;50943;51.448;7.646;2022-08-21T07:11:54;7.03;;;4.67;;
5831;SDS011;50943;51.448;7.646;2022-08-21T07:14:21;6.33;;;4.47;;
5831;SDS011;50943;51.448;7.646;2022-08-21T07:16:48;9.63;;;5.83;;
5831;SDS011;50943;51.448;7.646;2022-08-21T07:19:15;6.70;;;4.57;;
5831;SDS011;50943;51.448;7.646;2022-08-21T07:21:43;9.60;;;5.20;;
5831;SDS011;50943;51.448;7.646;2022-08-21T07:24:10;7.07;;;4.47;;
5831;SDS011;50943;51.448;7.646;2022-08-21T07:26:36;9.30;;;5.30;;
5831;SDS011;50943;51.448;7.646;2022-08-21T07:29:03;9.43;;;4.60;;
5831;SDS011;50943;51.448;7.646;2022-08-21T07:31:30;7.30;;;4.50;;
5831;SDS011;50943;51.448;7.646;2022-08-21T07:33:57;7.63;;;4.50;;
5831;SDS011;50943;51.448;7.646;2022-08-21T07:36:24;8.03;;;3.97;;
5831;SDS011;50943;51.448;7.646;2022-08-21T07:38:52;8.77;;;4.20;;
5831;SDS011;50943;51.448;7.646;2022-08-21T07:41:24;6.93;;;3.77;;
5831;SDS011;50943;51.448;7.646;2022-08-21T07:43:52;9.40;;;4.07;;
5831;SDS011;50943;51.448;7.646;2022-08-21T07:46:19;7.30;;;3.90;;
5831;SDS011;50943;51.448;7.646;2022-08-21T07:48:46;10.33;;;4.37;;
5831;SDS011;50943;51.448;7.646;2022-08-21T07:51:14;5.60;;;3.43;;
5831;SDS011;50943;51.448;7.646;2022-08-21T07:53:41;7.27;;;3.40;;
5831;SDS011;50943;51.448;7.646;2022-08-21T07:56:09;12.87;;;3.97;;
5831;SDS011;50943;51.448;7.646;2022-08-21T07:58:36;10.43;;;4.00;;
5831;SDS011;50943;51.448;7.646;2022-08-21T08:01:02;7.90;;;3.57;;
5831;SDS011;50943;51.448;7.646;2022-08-21T08:03:29;7.27;;;3.50;;
5831;SDS011;50943;51.448;7.646;2022-08-21T08:05:55;9.97;;;4.00;;
5831;SDS011;50943;51.448;7.646;2022-08-21T08:08:23;10.30;;;3.57;;
5831;SDS011;50943;51.448;7.646;2022-08-21T08:10:50;6.37;;;3.10;;
5831;SDS011;50943;51.448;7.646;2022-08-21T08:13:18;7.23;;;3.13;;
5831;SDS011;50943;51.448;7.646;2022-08-21T08:15:44;5.70;;;3.30;;
5831;SDS011;50943;51.448;7.646;2022-08-21T08:18:11;7.50;;;3.47;;
5831;SDS011;50943;51.448;7.646;2022-08-21T08:20:38;6.80;;;3.07;;
5831;SDS011;50943;51.448;7.646;2022-08-21T08:23:05;7.53;;;3.13;;
5831;SDS011;50943;51.448;7.646;2022-08-21T08:25:32;7.93;;;3.53;;
5831;SDS011;50943;51.448;7.646;2022-08-21T08:27:58;9.30;;;3.23;;
5831;SDS011;50943;51.448;7.646;2022-08-21T08:30:26;8.17;;;2.87;;
5831;SDS011;50943;51.448;7.646;2022-08-21T08:32:52;9.73;;;3.40;;
5831;SDS011;50943;51.448;7.646;2022-08-21T08:35:19;5.67;;;3.10;;
5831;SDS011;50943;51.448;7.646;2022-08-21T08:37:45;6.50;;;3.10;;
5831;SDS011;50943;51.448;7.646;2022-08-21T08:40:12;7.93;;;3.17;;
5831;SDS011;50943;51.448;7.646;2022-08-21T08:42:40;8.60;;;3.73;;
5831;SDS011;50943;51.448;7.646;2022-08-21T08:45:08;7.37;;;3.20;;
5831;SDS011;50943;51.448;7.646;2022-08-21T08:47:38;8.77;;;3.57;;
5831;SDS011;50943;51.448;7.646;2022-08-21T08:50:06;8.60;;;3.30;;
5831;SDS011;50943;51.448;7.646;2022-08-21T08:52:34;5.70;;;3.33;;
5831;SDS011;50943;51.448;7.646;2022-08-21T08:55:03;6.07;;;3.37;;
5831;SDS011;50943;51.448;7.646;2022-08-21T08:57:30;7.87;;;3.40;;
5831;SDS011;50943;51.448;7.646;2022-08-21T08:59:58;8.53;;;3.30;;
5831;SDS011;50943;51.448;7.646;2022-08-21T09:02:25;9.10;;;2.73;;
5831;SDS011;50943;51.448;7.646;2022-08-21T09:04:54;7.10;;;3.50;;
5831;SDS011;50943;51.448;7.646;2022-08-21T09:07:24;9.63;;;4.03;;
5831;SDS011;50943;51.448;7.646;2022-08-21T09:09:55;7.73;;;2.70;;
5831;SDS011;50943;51.448;7.646;2022-08-21T09:12:29;8.57;;;2.77;;
5831;SDS011;50943;51.448;7.646;2022-08-21T09:15:00;10.27;;;3.73;;
5831;SDS011;50943;51.448;7.646;2022-08-21T09:17:36;7.33;;;2.77;;
5831;SDS011;50943;51.448;7.646;2022-08-21T09:20:11;8.00;;;2.70;;
5831;SDS011;50943;51.448;7.646;2022-08-21T09:22:43;7.30;;;3.20;;
5831;SDS011;50943;51.448;7.646;2022-08-21T09:25:15;8.10;;;2.70;;
5831;SDS011;50943;51.448;7.646;2022-08-21T09:27:44;9.10;;;2.87;;
5831;SDS011;50943;51.448;7.646;2022-08-21T09:30:11;6.80;;;3.30;;
5831;SDS011;50943;51.448;7.646;2022-08-21T09:32:38;10.17;;;2.93;;
5831;SDS011;50943;51.448;7.646;2022-08-21T09:35:06;7.73;;;2.80;;
5831;SDS011;50943;51.448;7.646;2022-08-21T09:37:35;9.73;;;3.50;;
5831;SDS011;50943;51.448;7.646;2022-08-21T09:40:15;9.00;;;2.90;;
5831;SDS011;50943;51.448;7.646;2022-08-21T09:42:53;7.03;;;2.60;;
5831;SDS011;50943;51.448;7.646;2022-08-21T09:45:20;8.67;;;2.60;;
5831;SDS011;50943;51.448;7.646;2022-08-21T09:47:46;8.07;;;2.80;;
5831;SDS011;50943;51.448;7.646;2022-08-21T09:50:14;5.63;;;2.67;;
5831;SDS011;50943;51.448;7.646;2022-08-21T09:52:44;8.90;;;2.80;;
5831;SDS011;50943;51.448;7.646;2022-08-21T09:55:15;7.20;;;2.40;;
5831;SDS011;50943;51.448;7.646;2022-08-21T09:58:02;8.93;;;2.90;;
5831;SDS011;50943;51.448;7.646;2022-08-21T10:00:29;6.33;;;2.27;;
5831;SDS011;50943;51.448;7.646;2022-08-21T10:03:06;9.50;;;2.57;;
5831;SDS011;50943;51.448;7.646;2022-08-21T10:05:34;8.30;;;2.10;;
5831;SDS011;50943;51.448;7.646;2022-08-21T10:08:02;7.27;;;2.20;;
5831;SDS011;50943;51.448;7.646;2022-08-21T10:10:29;6.00;;;1.80;;
5831;SDS011;50943;51.448;7.646;2022-08-21T10:12:58;10.93;;;2.60;;
5831;SDS011;50943;51.448;7.646;2022-08-21T10:15:34;7.77;;;2.30;;
5831;SDS011;50943;51.448;7.646;2022-08-21T10:18:02;5.13;;;2.17;;
5831;SDS011;50943;51.448;7.646;2022-08-21T10:20:33;6.57;;;2.30;;
5831;SDS011;50943;51.448;7.646;2022-08-21T10:23:06;8.13;;;2.37;;
5831;SDS011;50943;51.448;7.646;2022-08-21T10:25:37;6.50;;;2.20;;
5831;SDS011;50943;51.448;7.646;2022-08-21T10:28:08;7.77;;;3.00;;
5831;SDS011;50943;51.448;7.646;2022-08-21T10:30:38;5.90;;;2.10;;
5831;SDS011;50943;51.448;7.646;2022-08-21T10:33:13;6.53;;;1.70;;
5831;SDS011;50943;51.448;7.646;2022-08-21T10:35:47;6.90;;;2.00;;
5831;SDS011;50943;51.448;7.646;2022-08-21T10:41:05;5.00;;;2.30;;
5831;SDS011;50943;51.448;7.646;2022-08-21T10:43:38;6.20;;;2.13;;
5831;SDS011;50943;51.448;7.646;2022-08-21T10:46:11;6.50;;;2.03;;
5831;SDS011;50943;51.448;7.646;2022-08-21T10:48:45;8.13;;;2.30;;
5831;SDS011;50943;51.448;7.646;2022-08-21T10:51:13;5.57;;;2.33;;
5831;SDS011;50943;51.448;7.646;2022-08-21T10:53:45;4.37;;;1.87;;
5831;SDS011;50943;51.448;7.646;2022-08-21T10:56:19;8.17;;;2.13;;
5831;SDS011;50943;51.448;7.646;2022-08-21T10:58:50;6.53;;;2.10;;
5831;SDS011;50943;51.448;7.646;2022-08-21T11:01:20;10.60;;;2.30;;
5831;SDS011;50943;51.448;7.646;2022-08-21T11:03:50;5.80;;;2.60;;
5831;SDS011;50943;51.448;7.646;2022-08-21T11:06:19;6.40;;;2.40;;
5831;SDS011;50943;51.448;7.646;2022-08-21T11:08:48;5.47;;;2.03;;
5831;SDS011;50943;51.448;7.646;2022-08-21T11:11:20;6.33;;;2.27;;
5831;SDS011;50943;51.448;7.646;2022-08-21T11:13:49;5.93;;;2.20;;
5831;SDS011;50943;51.448;7.646;2022-08-21T11:16:18;9.07;;;2.13;;
5831;SDS011;50943;51.448;7.646;2022-08-21T11:18:49;5.37;;;2.03;;
5831;SDS011;50943;51.448;7.646;2022-08-21T11:21:27;3.97;;;1.70;;
5831;SDS011;50943;51.448;7.646;2022-08-21T11:23:56;12.00;;;2.10;;
5831;SDS011;50943;51.448;7.646;2022-08-21T11:26:27;6.03;;;1.90;;
5831;SDS011;50943;51.448;7.646;2022-08-21T11:28:56;8.97;;;2.30;;
5831;SDS011;50943;51.448;7.646;2022-08-21T11:31:32;4.70;;;1.80;;
5831;SDS011;50943;51.448;7.646;2022-08-21T11:34:04;3.60;;;1.80;;
5831;SDS011;50943;51.448;7.646;2022-08-21T11:36:36;6.50;;;1.90;;
5831;SDS011;50943;51.448;7.646;2022-08-21T11:39:06;6.00;;;2.00;;
5831;SDS011;50943;51.448;7.646;2022-08-21T11:41:40;6.57;;;2.43;;
5831;SDS011;50943;51.448;7.646;2022-08-21T11:44:10;5.20;;;2.07;;
5831;SDS011;50943;51.448;7.646;2022-08-21T11:46:41;4.03;;;1.70;;
5831;SDS011;50943;51.448;7.646;2022-08-21T11:51:52;6.17;;;2.20;;
5831;SDS011;50943;51.448;7.646;2022-08-21T11:54:22;5.40;;;1.90;;
5831;SDS011;50943;51.448;7.646;2022-08-21T11:56:53;4.93;;;2.07;;
5831;SDS011;50943;51.448;7.646;2022-08-21T11:59:21;3.00;;;1.40;;
5831;SDS011;50943;51.448;7.646;2022-08-21T12:01:50;4.13;;;1.90;;
5831;SDS011;50943;51.448;7.646;2022-08-21T12:04:26;7.30;;;1.70;;
5831;SDS011;50943;51.448;7.646;2022-08-21T12:06:54;8.70;;;2.03;;
5831;SDS011;50943;51.448;7.646;2022-08-21T12:09:28;4.60;;;2.03;;
5831;SDS011;50943;51.448;7.646;2022-08-21T12:12:01;4.73;;;1.90;;
5831;SDS011;50943;51.448;7.646;2022-08-21T12:14:35;5.00;;;1.80;;
5831;SDS011;50943;51.448;7.646;2022-08-21T12:17:03;6.20;;;1.90;;
5831;SDS011;50943;51.448;7.646;2022-08-21T12:19:30;10.23;;;2.40;;
5831;SDS011;50943;51.448;7.646;2022-08-21T12:21:58;4.20;;;1.73;;
5831;SDS011;50943;51.448;7.646;2022-08-21T12:24:31;4.20;;;1.93;;
5831;SDS011;50943;51.448;7.646;2022-08-21T12:26:58;6.43;;;1.70;;
5831;SDS011;50943;51.448;7.646;2022-08-21T12:29:27;4.27;;;1.60;;
5831;SDS011;50943;51.448;7.646;2022-08-21T12:31:57;4.07;;;1.50;;
5831;SDS011;50943;51.448;7.646;2022-08-21T12:34:26;5.27;;;2.03;;
5831;SDS011;50943;51.448;7.646;2022-08-21T12:36:56;5.00;;;1.67;;
5831;SDS011;50943;51.448;7.646;2022-08-21T12:39:24;8.20;;;1.90;;
5831;SDS011;50943;51.448;7.646;2022-08-21T12:41:53;6.53;;;4.47;;
5831;SDS011;50943;51.448;7.646;2022-08-21T12:44:21;6.40;;;1.90;;
5831;SDS011;50943;51.448;7.646;2022-08-21T12:46:50;4.40;;;1.70;;
5831;SDS011;50943;51.448;7.646;2022-08-21T12:49:18;5.17;;;1.40;;
5831;SDS011;50943;51.448;7.646;2022-08-21T12:51:48;3.80;;;1.40;;
5831;SDS011;50943;51.448;7.646;2022-08-21T12:54:22;3.80;;;1.50;;
5831;SDS011;50943;51.448;7.646;2022-08-21T12:56:55;3.93;;;1.43;;
5831;SDS011;50943;51.448;7.646;2022-08-21T12:59:21;3.70;;;1.20;;
5831;SDS011;50943;51.448;7.646;2022-08-21T13:01:50;4.37;;;1.47;;
5831;SDS011;50943;51.448;7.646;2022-08-21T13:04:18;2.37;;;1.10;;
5831;SDS011;50943;51.448;7.646;2022-08-21T13:06:47;4.73;;;1.30;;
5831;SDS011;50943;51.448;7.646;2022-08-21T13:09:16;2.87;;;1.20;;
5831;SDS011;50943;51.448;7.646;2022-08-21T13:11:44;4.90;;;2.00;;
5831;SDS011;50943;51.448;7.646;2022-08-21T13:14:13;6.43;;;1.30;;
5831;SDS011;50943;51.448;7.646;2022-08-21T13:16:40;2.23;;;1.13;;
5831;SDS011;50943;51.448;7.646;2022-08-21T13:19:11;3.57;;;1.40;;
5831;SDS011;50943;51.448;7.646;2022-08-21T13:21:39;3.17;;;1.20;;
5831;SDS011;50943;51.448;7.646;2022-08-21T13:24:10;2.47;;;1.30;;
5831;SDS011;50943;51.448;7.646;2022-08-21T13:26:38;4.40;;;1.40;;
5831;SDS011;50943;51.448;7.646;2022-08-21T13:29:06;4.67;;;1.17;;
5831;SDS011;50943;51.448;7.646;2022-08-21T13:31:33;2.93;;;1.30;;
5831;SDS011;50943;51.448;7.646;2022-08-21T13:33:59;4.60;;;1.60;;
5831;SDS011;50943;51.448;7.646;2022-08-21T13:36:28;3.13;;;1.60;;
5831;SDS011;50943;51.448;7.646;2022-08-21T13:38:55;1.80;;;1.00;;
5831;SDS011;50943;51.448;7.646;2022-08-21T13:41:23;9.07;;;1.58;;
5831;SDS011;50943;51.448;7.646;2022-08-21T13:43:55;2.85;;;1.30;;
5831;SDS011;50943;51.448;7.646;2022-08-21T13:46:22;2.15;;;1.30;;
5831;SDS011;50943;51.448;7.646;2022-08-21T13:48:50;2.95;;;1.30;;
5831;SDS011;50943;51.448;7.646;2022-08-21T13:51:17;3.20;;;1.38;;
5831;SDS011;50943;51.448;7.646;2022-08-21T13:53:47;2.28;;;1.10;;
5831;SDS011;50943;51.448;7.646;2022-08-21T13:56:23;1.97;;;1.23;;
5831;SDS011;50943;51.448;7.646;2022-08-21T13:58:50;2.67;;;1.13;;
5831;SDS011;50943;51.448;7.646;2022-08-21T14:01:18;1.70;;;1.20;;
5831;SDS011;50943;51.448;7.646;2022-08-21T14:03:45;2.80;;;1.10;;
5831;SDS011;50943;51.448;7.646;2022-08-21T14:06:14;2.10;;;1.30;;
5831;SDS011;50943;51.448;7.646;2022-08-21T14:08:46;3.53;;;1.27;;
5831;SDS011;50943;51.448;7.646;2022-08-21T14:11:15;1.63;;;1.00;;
5831;SDS011;50943;51.448;7.646;2022-08-21T14:13:43;4.80;;;1.40;;
5831;SDS011;50943;51.448;7.646;2022-08-21T14:16:11;1.77;;;1.00;;
5831;SDS011;50943;51.448;7.646;2022-08-21T14:18:43;4.63;;;1.20;;
5831;SDS011;50943;51.448;7.646;2022-08-21T14:21:10;3.20;;;1.20;;
5831;SDS011;50943;51.448;7.646;2022-08-21T14:23:38;5.57;;;1.23;;
5831;SDS011;50943;51.448;7.646;2022-08-21T14:26:05;3.70;;;1.40;;
5831;SDS011;50943;51.448;7.646;2022-08-21T14:28:34;5.30;;;1.50;;
5831;SDS011;50943;51.448;7.646;2022-08-21T14:31:11;1.50;;;0.90;;
5831;SDS011;50943;51.448;7.646;2022-08-21T14:33:38;2.97;;;1.23;;
5831;SDS011;50943;51.448;7.646;2022-08-21T14:36:04;2.97;;;1.50;;
5831;SDS011;50943;51.448;7.646;2022-08-21T14:38:31;2.80;;;1.20;;
5831;SDS011;50943;51.448;7.646;2022-08-21T14:40:59;2.37;;;1.27;;
5831;SDS011;50943;51.448;7.646;2022-08-21T14:43:26;5.97;;;1.50;;
5831;SDS011;50943;51.448;7.646;2022-08-21T14:45:54;3.23;;;1.17;;
5831;SDS011;50943;51.448;7.646;2022-08-21T14:48:21;3.37;;;1.50;;
5831;SDS011;50943;51.448;7.646;2022-08-21T14:50:47;1.90;;;0.90;;
5831;SDS011;50943;51.448;7.646;2022-08-21T14:53:14;2.50;;;1.03;;
5831;SDS011;50943;51.448;7.646;2022-08-21T14:55:41;1.87;;;0.90;;
5831;SDS011;50943;51.448;7.646;2022-08-21T14:58:25;2.80;;;1.20;;
5831;SDS011;50943;51.448;7.646;2022-08-21T15:00:52;9.07;;;1.50;;
5831;SDS011;50943;51.448;7.646;2022-08-21T15:03:21;2.10;;;1.20;;
5831;SDS011;50943;51.448;7.646;2022-08-21T15:05:48;2.70;;;0.90;;